sensor_id;sensor_type;location;lat;lon;timestamp;pressure;altitude;pressure_sealevel;temperature;humidity
70521;BME280;58442;52.716;23.560;2023-05-28T00:00:12;102215.86;;;8.23;56.85
70521;BME280;58442;52.716;23.560;2023-05-28T00:02:22;102209.10;;;8.21;56.93
70521;BME280;58442;52.716;23.560;2023-05-28T00:04:24;102206.70;;;8.19;57.07
70521;BME280;58442;52.716;23.560;2023-05-28T00:06:26;102204.29;;;8.18;57.10
70521;BME280;58442;52.716;23.560;2023-05-28T00:08:27;102207.27;;;8.16;57.10
70521;BME280;58442;52.716;23.560;2023-05-28T00:10:37;102204.07;;;8.14;57.17
70521;BME280;58442;52.716;23.560;2023-05-28T00:12:39;102205.47;;;8.12;57.33
70521;BME280;58442;52.716;23.560;2023-05-28T00:14:40;102196.01;;;8.09;57.43
70521;BME280;58442;52.716;23.560;2023-05-28T00:16:42;102196.61;;;8.06;57.41
70521;BME280;58442;52.716;23.560;2023-05-28T00:18:52;102201.52;;;8.04;57.46
70521;BME280;58442;52.716;23.560;2023-05-28T00:20:54;102198.02;;;8.04;57.61
70521;BME280;58442;52.716;23.560;2023-05-28T00:22:56;102199.38;;;8.01;57.68
70521;BME280;58442;52.716;23.560;2023-05-28T00:24:58;102193.97;;;8.01;57.63
70521;BME280;58442;52.716;23.560;2023-05-28T00:27:07;102192.67;;;7.99;57.63
70521;BME280;58442;52.716;23.560;2023-05-28T00:29:09;102198.38;;;7.97;57.80
70521;BME280;58442;52.716;23.560;2023-05-28T00:31:10;102197.05;;;7.94;57.98
70521;BME280;58442;52.716;23.560;2023-05-28T00:33:13;102195.74;;;7.92;57.91
70521;BME280;58442;52.716;23.560;2023-05-28T00:35:22;102193.60;;;7.89;57.97
70521;BME280;58442;52.716;23.560;2023-05-28T00:37:24;102191.50;;;7.86;58.07
70521;BME280;58442;52.716;23.560;2023-05-28T00:39:25;102191.00;;;7.84;58.11
70521;BME280;58442;52.716;23.560;2023-05-28T00:41:29;102195.61;;;7.83;58.07
70521;BME280;58442;52.716;23.560;2023-05-28T00:43:37;102195.08;;;7.81;58.02
70521;BME280;58442;52.716;23.560;2023-05-28T00:45:39;102197.27;;;7.79;58.16
70521;BME280;58442;52.716;23.560;2023-05-28T00:47:41;102190.83;;;7.75;58.21
70521;BME280;58442;52.716;23.560;2023-05-28T00:49:43;102198.44;;;7.73;58.25
70521;BME280;58442;52.716;23.560;2023-05-28T00:51:53;102186.31;;;7.71;58.26
70521;BME280;58442;52.716;23.560;2023-05-28T00:53:56;102189.59;;;7.67;58.33
70521;BME280;58442;52.716;23.560;2023-05-28T00:55:58;102194.99;;;7.67;58.37
70521;BME280;58442;52.716;23.560;2023-05-28T00:58:00;102189.08;;;7.65;58.29
70521;BME280;58442;52.716;23.560;2023-05-28T01:00:09;102197.20;;;7.65;58.28
70521;BME280;58442;52.716;23.560;2023-05-28T01:02:14;102195.08;;;7.62;58.35
70521;BME280;58442;52.716;23.560;2023-05-28T01:04:19;102182.13;;;7.59;58.47
70521;BME280;58442;52.716;23.560;2023-05-28T01:06:23;102181.62;;;7.57;58.57
70521;BME280;58442;52.716;23.560;2023-05-28T01:08:25;102182.19;;;7.54;58.60
70521;BME280;58442;52.716;23.560;2023-05-28T01:10:27;102181.68;;;7.52;58.76
70521;BME280;58442;52.716;23.560;2023-05-28T01:12:29;102179.56;;;7.49;58.87
70521;BME280;58442;52.716;23.560;2023-05-28T01:14:32;102179.03;;;7.47;58.96
70521;BME280;58442;52.716;23.560;2023-05-28T01:16:37;102176.91;;;7.44;59.03
70521;BME280;58442;52.716;23.560;2023-05-28T01:18:40;102171.80;;;7.43;59.22
70521;BME280;58442;52.716;23.560;2023-05-28T01:20:45;102181.28;;;7.40;59.27
70521;BME280;58442;52.716;23.560;2023-05-28T01:22:53;102179.17;;;7.37;59.34
70521;BME280;58442;52.716;23.560;2023-05-28T01:24:55;102177.57;;;7.36;59.38
70521;BME280;58442;52.716;23.560;2023-05-28T01:26:59;102171.63;;;7.34;59.53
70521;BME280;58442;52.716;23.560;2023-05-28T01:31:16;102173.31;;;7.30;59.63
70521;BME280;58442;52.716;23.560;2023-05-28T01:33:19;102163.87;;;7.27;59.64
70521;BME280;58442;52.716;23.560;2023-05-28T01:35:29;102172.27;;;7.26;59.70
70521;BME280;58442;52.716;23.560;2023-05-28T01:37:31;102163.66;;;7.24;59.79
70521;BME280;58442;52.716;23.560;2023-05-28T01:39:42;102164.75;;;7.23;59.78
70521;BME280;58442;52.716;23.560;2023-05-28T01:41:45;102168.82;;;7.20;59.78
70521;BME280;58442;52.716;23.560;2023-05-28T01:43:47;102176.13;;;7.20;59.72
70521;BME280;58442;52.716;23.560;2023-05-28T01:45:50;102171.31;;;7.17;59.81
70521;BME280;58442;52.716;23.560;2023-05-28T01:47:53;102169.71;;;7.16;59.73
70521;BME280;58442;52.716;23.560;2023-05-28T01:49:55;102164.59;;;7.14;59.72
70521;BME280;58442;52.716;23.560;2023-05-28T01:52:02;102162.16;;;7.12;59.75
70521;BME280;58442;52.716;23.560;2023-05-28T01:54:04;102164.64;;;7.09;59.83
70521;BME280;58442;52.716;23.560;2023-05-28T01:56:06;102164.94;;;7.07;59.83
70521;BME280;58442;52.716;23.560;2023-05-28T01:58:07;102157.91;;;7.06;59.86
70521;BME280;58442;52.716;23.560;2023-05-28T02:00:14;102158.49;;;7.03;59.88
70521;BME280;58442;52.716;23.560;2023-05-28T02:02:16;102153.67;;;7.00;60.01
70521;BME280;58442;52.716;23.560;2023-05-28T02:04:18;102155.04;;;6.98;60.11
70521;BME280;58442;52.716;23.560;2023-05-28T02:06:21;102166.95;;;6.97;60.07
70521;BME280;58442;52.716;23.560;2023-05-28T02:08:29;102154.81;;;6.94;60.09
70521;BME280;58442;52.716;23.560;2023-05-28T02:10:30;102159.41;;;6.94;60.23
70521;BME280;58442;52.716;23.560;2023-05-28T02:12:32;102150.78;;;6.92;60.21
70521;BME280;58442;52.716;23.560;2023-05-28T02:14:33;102153.77;;;6.90;60.16
70521;BME280;58442;52.716;23.560;2023-05-28T02:16:47;102154.87;;;6.89;60.14
70521;BME280;58442;52.716;23.560;2023-05-28T02:18:52;102157.86;;;6.88;60.26
70521;BME280;58442;52.716;23.560;2023-05-28T02:20:54;102154.62;;;6.85;60.27
70521;BME280;58442;52.716;23.560;2023-05-28T02:22:55;102151.70;;;6.82;60.30
70521;BME280;58442;52.716;23.560;2023-05-28T02:24:59;102157.91;;;6.82;60.32
70521;BME280;58442;52.716;23.560;2023-05-28T02:27:00;102149.56;;;6.79;60.42
70521;BME280;58442;52.716;23.560;2023-05-28T02:29:04;102157.66;;;6.79;60.42
70521;BME280;58442;52.716;23.560;2023-05-28T02:31:07;102157.66;;;6.79;60.43
70521;BME280;58442;52.716;23.560;2023-05-28T02:33:14;102154.16;;;6.78;60.42
70521;BME280;58442;52.716;23.560;2023-05-28T02:35:15;102159.56;;;6.78;60.45
70521;BME280;58442;52.716;23.560;2023-05-28T02:37:21;102158.76;;;6.78;60.48
70521;BME280;58442;52.716;23.560;2023-05-28T02:39:24;102160.37;;;6.79;60.44
70521;BME280;58442;52.716;23.560;2023-05-28T02:41:29;102161.45;;;6.78;60.42
70521;BME280;58442;52.716;23.560;2023-05-28T02:43:31;102159.56;;;6.78;60.49
70521;BME280;58442;52.716;23.560;2023-05-28T02:45:32;102159.30;;;6.80;60.48
70521;BME280;58442;52.716;23.560;2023-05-28T02:47:34;102162.80;;;6.80;60.47
70521;BME280;58442;52.716;23.560;2023-05-28T02:49:44;102167.91;;;6.82;60.46
70521;BME280;58442;52.716;23.560;2023-05-28T02:51:46;102166.81;;;6.83;60.55
70521;BME280;58442;52.716;23.560;2023-05-28T02:53:47;102165.22;;;6.82;60.61
70521;BME280;58442;52.716;23.560;2023-05-28T02:55:49;102164.93;;;6.83;60.63
70521;BME280;58442;52.716;23.560;2023-05-28T02:57:58;102164.12;;;6.83;60.70
70521;BME280;58442;52.716;23.560;2023-05-28T03:00:00;102169.52;;;6.83;60.85
70521;BME280;58442;52.716;23.560;2023-05-28T03:02:02;102173.03;;;6.83;60.95
70521;BME280;58442;52.716;23.560;2023-05-28T03:04:03;102177.05;;;6.86;60.96
70521;BME280;58442;52.716;23.560;2023-05-28T03:06:14;102174.34;;;6.86;60.96
70521;BME280;58442;52.716;23.560;2023-05-28T03:08:17;102182.19;;;6.88;61.04
70521;BME280;58442;52.716;23.560;2023-05-28T03:10:19;102177.58;;;6.88;61.14
70521;BME280;58442;52.716;23.560;2023-05-28T03:12:20;102176.49;;;6.89;61.20
70521;BME280;58442;52.716;23.560;2023-05-28T03:14:28;102171.88;;;6.90;61.24
70521;BME280;58442;52.716;23.560;2023-05-28T03:16:30;102185.11;;;6.91;61.33
70521;BME280;58442;52.716;23.560;2023-05-28T03:18:36;102178.34;;;6.94;61.37
70521;BME280;58442;52.716;23.560;2023-05-28T03:20:38;102178.05;;;6.95;61.40
70521;BME280;58442;52.716;23.560;2023-05-28T03:22:45;102180.74;;;6.95;61.43
70521;BME280;58442;52.716;23.560;2023-05-28T03:24:48;102176.66;;;6.98;61.48
70521;BME280;58442;52.716;23.560;2023-05-28T03:26:49;102180.70;;;7.00;61.49
70521;BME280;58442;52.716;23.560;2023-05-28T03:28:51;102183.11;;;7.02;61.46
70521;BME280;58442;52.716;23.560;2023-05-28T03:30:58;102178.50;;;7.02;61.46
70521;BME280;58442;52.716;23.560;2023-05-28T03:33:00;102174.70;;;7.03;61.64
70521;BME280;58442;52.716;23.560;2023-05-28T03:35:01;102180.11;;;7.03;61.75
70521;BME280;58442;52.716;23.560;2023-05-28T03:37:04;102179.01;;;7.04;61.78
70521;BME280;58442;52.716;23.560;2023-05-28T03:39:13;102172.25;;;7.07;61.86
70521;BME280;58442;52.716;23.560;2023-05-28T03:41:15;102173.05;;;7.07;62.03
70521;BME280;58442;52.716;23.560;2023-05-28T03:43:17;102180.06;;;7.08;62.16
70521;BME280;58442;52.716;23.560;2023-05-28T03:45:18;102176.77;;;7.11;62.17
70521;BME280;58442;52.716;23.560;2023-05-28T03:47:28;102179.98;;;7.13;62.29
70521;BME280;58442;52.716;23.560;2023-05-28T03:49:33;102184.02;;;7.16;62.44
70521;BME280;58442;52.716;23.560;2023-05-28T03:51:35;102186.14;;;7.19;62.56
70521;BME280;58442;52.716;23.560;2023-05-28T03:53:37;102189.88;;;7.23;62.60
70521;BME280;58442;52.716;23.560;2023-05-28T03:55:43;102181.99;;;7.27;62.64
70521;BME280;58442;52.716;23.560;2023-05-28T03:57:45;102190.64;;;7.29;62.79
70521;BME280;58442;52.716;23.560;2023-05-28T03:59:48;102185.45;;;7.32;62.83
70521;BME280;58442;52.716;23.560;2023-05-28T04:01:50;102182.98;;;7.36;62.84
70521;BME280;58442;52.716;23.560;2023-05-28T04:03:58;102181.59;;;7.38;62.91
70521;BME280;58442;52.716;23.560;2023-05-28T04:06:00;102185.60;;;7.41;63.10
70521;BME280;58442;52.716;23.560;2023-05-28T04:08:03;102179.63;;;7.44;63.18
70521;BME280;58442;52.716;23.560;2023-05-28T04:10:05;102180.66;;;7.48;63.21
70521;BME280;58442;52.716;23.560;2023-05-28T04:12:13;102182.77;;;7.51;63.28
70521;BME280;58442;52.716;23.560;2023-05-28T04:14:15;102183.28;;;7.53;63.48
70521;BME280;58442;52.716;23.560;2023-05-28T04:16:17;102180.82;;;7.57;63.56
70521;BME280;58442;52.716;23.560;2023-05-28T04:18:23;102174.01;;;7.59;63.63
70521;BME280;58442;52.716;23.560;2023-05-28T04:20:28;102181.55;;;7.62;63.74
70521;BME280;58442;52.716;23.560;2023-05-28T04:22:30;102186.37;;;7.65;63.94
70521;BME280;58442;52.716;23.560;2023-05-28T04:24:32;102188.48;;;7.68;64.07
70521;BME280;58442;52.716;23.560;2023-05-28T04:26:34;102188.71;;;7.72;63.98
70521;BME280;58442;52.716;23.560;2023-05-28T04:28:43;102187.26;;;7.80;64.15
70521;BME280;58442;52.716;23.560;2023-05-28T04:30:48;102185.59;;;7.84;64.28
70521;BME280;58442;52.716;23.560;2023-05-28T04:32:52;102183.89;;;7.88;64.35
70521;BME280;58442;52.716;23.560;2023-05-28T04:34:54;102188.13;;;7.94;64.39
70521;BME280;58442;52.716;23.560;2023-05-28T04:36:58;102179.93;;;7.99;64.44
70521;BME280;58442;52.716;23.560;2023-05-28T04:39:01;102182.57;;;8.04;64.58
70521;BME280;58442;52.716;23.560;2023-05-28T04:41:05;102177.05;;;8.09;64.65
70521;BME280;58442;52.716;23.560;2023-05-28T04:43:07;102179.92;;;8.18;64.55
70521;BME280;58442;52.716;23.560;2023-05-28T04:45:13;102181.46;;;8.24;64.59
70521;BME280;58442;52.716;23.560;2023-05-28T04:47:15;102182.15;;;8.30;64.70
70521;BME280;58442;52.716;23.560;2023-05-28T04:49:17;102181.00;;;8.36;64.78
70521;BME280;58442;52.716;23.560;2023-05-28T04:51:19;102176.30;;;8.41;64.76
70521;BME280;58442;52.716;23.560;2023-05-28T04:53:28;102182.44;;;8.47;64.83
70521;BME280;58442;52.716;23.560;2023-05-28T04:55:29;102188.29;;;8.54;64.91
70521;BME280;58442;52.716;23.560;2023-05-28T04:57:32;102190.11;;;8.59;64.97
70521;BME280;58442;52.716;23.560;2023-05-28T04:59:33;102188.62;;;8.66;64.87
70521;BME280;58442;52.716;23.560;2023-05-28T05:01:43;102182.01;;;8.72;64.84
70521;BME280;58442;52.716;23.560;2023-05-28T05:03:45;102176.99;;;8.80;64.91
70521;BME280;58442;52.716;23.560;2023-05-28T05:05:46;102185.02;;;8.85;64.89
70521;BME280;58442;52.716;23.560;2023-05-28T05:07:48;102179.19;;;8.91;64.85
70521;BME280;58442;52.716;23.560;2023-05-28T05:09:58;102182.32;;;8.98;64.81
70521;BME280;58442;52.716;23.560;2023-05-28T05:11:59;102188.66;;;9.08;64.87
70521;BME280;58442;52.716;23.560;2023-05-28T05:14:01;102182.04;;;9.14;64.94
70521;BME280;58442;52.716;23.560;2023-05-28T05:16:03;102185.63;;;9.23;64.77
70521;BME280;58442;52.716;23.560;2023-05-28T05:18:12;102184.02;;;9.36;64.52
70521;BME280;58442;52.716;23.560;2023-05-28T05:20:14;102188.95;;;9.47;64.46
70521;BME280;58442;52.716;23.560;2023-05-28T05:22:16;102182.48;;;9.57;64.25
70521;BME280;58442;52.716;23.560;2023-05-28T05:24:17;102180.95;;;9.65;64.15
70521;BME280;58442;52.716;23.560;2023-05-28T05:26:27;102182.94;;;9.73;64.20
70521;BME280;58442;52.716;23.560;2023-05-28T05:28:29;102185.23;;;9.79;64.23
70521;BME280;58442;52.716;23.560;2023-05-28T05:30:31;102188.34;;;9.86;64.09
70521;BME280;58442;52.716;23.560;2023-05-28T05:32:32;102183.79;;;9.96;64.00
70521;BME280;58442;52.716;23.560;2023-05-28T05:34:42;102177.79;;;10.07;63.86
70521;BME280;58442;52.716;23.560;2023-05-28T05:36:44;102176.25;;;10.15;63.79
70521;BME280;58442;52.716;23.560;2023-05-28T05:38:48;102172.53;;;10.25;63.52
70521;BME280;58442;52.716;23.560;2023-05-28T05:40:50;102171.46;;;10.34;63.42
70521;BME280;58442;52.716;23.560;2023-05-28T05:42:57;102162.55;;;10.43;63.26
70521;BME280;58442;52.716;23.560;2023-05-28T05:44:59;102170.78;;;10.51;63.17
70521;BME280;58442;52.716;23.560;2023-05-28T05:47:00;102164.27;;;10.61;63.03
70521;BME280;58442;52.716;23.560;2023-05-28T05:49:02;102168.65;;;10.71;62.76
70521;BME280;58442;52.716;23.560;2023-05-28T05:51:12;102162.12;;;10.80;62.51
70521;BME280;58442;52.716;23.560;2023-05-28T05:53:20;102169.51;;;10.88;62.42
70521;BME280;58442;52.716;23.560;2023-05-28T05:55:22;102157.05;;;10.96;62.28
70521;BME280;58442;52.716;23.560;2023-05-28T05:57:24;102166.07;;;11.05;62.11
70521;BME280;58442;52.716;23.560;2023-05-28T05:59:27;102157.60;;;11.15;61.88
70521;BME280;58442;52.716;23.560;2023-05-28T06:01:29;102161.32;;;11.28;61.60
70521;BME280;58442;52.716;23.560;2023-05-28T06:03:31;102161.01;;;11.38;61.49
70521;BME280;58442;52.716;23.560;2023-05-28T06:05:33;102165.70;;;11.46;61.30
70521;BME280;58442;52.716;23.560;2023-05-28T06:07:42;102162.98;;;11.55;61.27
70521;BME280;58442;52.716;23.560;2023-05-28T06:09:43;102163.45;;;11.66;61.13
70521;BME280;58442;52.716;23.560;2023-05-28T06:11:45;102156.57;;;11.77;61.00
70521;BME280;58442;52.716;23.560;2023-05-28T06:13:47;102160.44;;;11.93;60.69
70521;BME280;58442;52.716;23.560;2023-05-28T06:15:57;102162.69;;;12.09;60.42
70521;BME280;58442;52.716;23.560;2023-05-28T06:18:01;102155.93;;;12.23;59.96
70521;BME280;58442;52.716;23.560;2023-05-28T06:20:06;102158.47;;;12.37;59.67
70521;BME280;58442;52.716;23.560;2023-05-28T06:22:08;102160.67;;;12.52;59.28
70521;BME280;58442;52.716;23.560;2023-05-28T06:24:12;102161.13;;;12.63;59.06
70521;BME280;58442;52.716;23.560;2023-05-28T06:26:13;102163.66;;;12.77;58.85
70521;BME280;58442;52.716;23.560;2023-05-28T06:28:15;102156.52;;;12.93;58.41
70521;BME280;58442;52.716;23.560;2023-05-28T06:30:17;102153.37;;;13.12;58.05
70521;BME280;58442;52.716;23.560;2023-05-28T06:32:26;102155.09;;;13.25;57.88
70521;BME280;58442;52.716;23.560;2023-05-28T06:34:28;102148.59;;;13.38;57.66
70521;BME280;58442;52.716;23.560;2023-05-28T06:36:30;102153.45;;;13.54;57.30
70521;BME280;58442;52.716;23.560;2023-05-28T06:38:33;102149.32;;;13.68;57.12
70521;BME280;58442;52.716;23.560;2023-05-28T06:40:41;102142.70;;;13.90;56.81
70521;BME280;58442;52.716;23.560;2023-05-28T06:42:42;102151.08;;;14.06;56.53
70521;BME280;58442;52.716;23.560;2023-05-28T06:44:44;102142.26;;;14.21;55.95
70521;BME280;58442;52.716;23.560;2023-05-28T06:46:46;102145.26;;;14.41;55.30
70521;BME280;58442;52.716;23.560;2023-05-28T06:48:56;102135.74;;;14.59;54.83
70521;BME280;58442;52.716;23.560;2023-05-28T06:50:57;102140.68;;;14.78;54.12
70521;BME280;58442;52.716;23.560;2023-05-28T06:53:00;102143.08;;;14.92;53.70
70521;BME280;58442;52.716;23.560;2023-05-28T06:55:04;102140.45;;;15.08;53.23
70521;BME280;58442;52.716;23.560;2023-05-28T06:57:10;102133.80;;;15.21;52.73
70521;BME280;58442;52.716;23.560;2023-05-28T06:59:12;102134.23;;;15.35;52.11
70521;BME280;58442;52.716;23.560;2023-05-28T07:01:14;102142.00;;;15.45;51.97
70521;BME280;58442;52.716;23.560;2023-05-28T07:03:16;102131.70;;;15.54;51.80
70521;BME280;58442;52.716;23.560;2023-05-28T07:05:26;102132.94;;;15.69;51.48
70521;BME280;58442;52.716;23.560;2023-05-28T07:07:28;102139.28;;;15.85;51.04
70521;BME280;58442;52.716;23.560;2023-05-28T07:09:30;102134.28;;;16.03;50.56
70521;BME280;58442;52.716;23.560;2023-05-28T07:11:32;102132.02;;;16.21;49.97
70521;BME280;58442;52.716;23.560;2023-05-28T07:13:40;102129.22;;;16.33;49.43
70521;BME280;58442;52.716;23.560;2023-05-28T07:15:41;102133.20;;;16.36;49.39
70521;BME280;58442;52.716;23.560;2023-05-28T07:17:43;102129.91;;;16.46;49.14
70521;BME280;58442;52.716;23.560;2023-05-28T07:19:45;102124.70;;;16.57;48.56
70521;BME280;58442;52.716;23.560;2023-05-28T07:21:55;102119.03;;;16.65;48.31
70521;BME280;58442;52.716;23.560;2023-05-28T07:23:57;102118.44;;;16.72;48.03
70521;BME280;58442;52.716;23.560;2023-05-28T07:25:58;102125.42;;;16.85;47.50
70521;BME280;58442;52.716;23.560;2023-05-28T07:28:00;102118.24;;;16.97;47.44
70521;BME280;58442;52.716;23.560;2023-05-28T07:30:10;102120.00;;;17.05;47.22
70521;BME280;58442;52.716;23.560;2023-05-28T07:32:12;102119.44;;;17.15;46.95
70521;BME280;58442;52.716;23.560;2023-05-28T07:34:14;102107.26;;;17.32;46.44
70521;BME280;58442;52.716;23.560;2023-05-28T07:36:15;102106.77;;;17.45;46.11
70521;BME280;58442;52.716;23.560;2023-05-28T07:38:24;102105.02;;;17.57;45.54
70521;BME280;58442;52.716;23.560;2023-05-28T07:40:27;102105.47;;;17.59;45.18
70521;BME280;58442;52.716;23.560;2023-05-28T07:42:29;102104.37;;;17.63;45.26
70521;BME280;58442;52.716;23.560;2023-05-28T07:44:30;102105.84;;;17.76;44.94
70521;BME280;58442;52.716;23.560;2023-05-28T07:46:39;102096.22;;;17.86;44.54
70521;BME280;58442;52.716;23.560;2023-05-28T07:48:42;102098.37;;;17.96;44.17
70521;BME280;58442;52.716;23.560;2023-05-28T07:50:44;102099.38;;;18.08;43.74
70521;BME280;58442;52.716;23.560;2023-05-28T07:52:46;102095.59;;;18.16;43.60
70521;BME280;58442;52.716;23.560;2023-05-28T07:54:54;102096.95;;;18.25;43.58
70521;BME280;58442;52.716;23.560;2023-05-28T07:56:59;102100.63;;;18.33;43.50
70521;BME280;58442;52.716;23.560;2023-05-28T07:59:01;102096.45;;;18.43;43.18
70521;BME280;58442;52.716;23.560;2023-05-28T08:01:03;102095.02;;;18.52;42.82
70521;BME280;58442;52.716;23.560;2023-05-28T08:03:10;102096.30;;;18.58;42.66
70521;BME280;58442;52.716;23.560;2023-05-28T08:05:13;102101.13;;;18.65;42.41
70521;BME280;58442;52.716;23.560;2023-05-28T08:07:16;102081.96;;;18.69;42.16
70521;BME280;58442;52.716;23.560;2023-05-28T08:09:17;102091.13;;;18.76;41.89
70521;BME280;58442;52.716;23.560;2023-05-28T08:11:24;102083.45;;;18.89;41.67
70521;BME280;58442;52.716;23.560;2023-05-28T08:13:27;102080.10;;;19.03;41.28
70521;BME280;58442;52.716;23.560;2023-05-28T08:15:29;102073.99;;;19.17;40.73
70521;BME280;58442;52.716;23.560;2023-05-28T08:17:31;102072.12;;;19.24;40.70
70521;BME280;58442;52.716;23.560;2023-05-28T08:19:38;102078.52;;;19.32;40.58
70521;BME280;58442;52.716;23.560;2023-05-28T08:21:40;102082.47;;;19.34;40.58
70521;BME280;58442;52.716;23.560;2023-05-28T08:23:43;102080.98;;;19.40;40.40
70521;BME280;58442;52.716;23.560;2023-05-28T08:25:45;102078.70;;;19.46;40.36
70521;BME280;58442;52.716;23.560;2023-05-28T08:27:53;102084.27;;;19.50;40.35
70521;BME280;58442;52.716;23.560;2023-05-28T08:29:54;102082.41;;;19.57;39.99
70521;BME280;58442;52.716;23.560;2023-05-28T08:31:56;102082.90;;;19.66;39.94
70521;BME280;58442;52.716;23.560;2023-05-28T08:34:00;102077.52;;;19.77;39.67
70521;BME280;58442;52.716;23.560;2023-05-28T08:36:07;102071.72;;;19.89;39.39
70521;BME280;58442;52.716;23.560;2023-05-28T08:38:09;102071.45;;;20.02;39.08
70521;BME280;58442;52.716;23.560;2023-05-28T08:40:11;102068.42;;;20.14;38.75
70521;BME280;58442;52.716;23.560;2023-05-28T08:42:15;102062.23;;;20.28;38.49
70521;BME280;58442;52.716;23.560;2023-05-28T08:44:22;102063.13;;;20.39;38.42
70521;BME280;58442;52.716;23.560;2023-05-28T08:46:25;102061.64;;;20.48;38.15
70521;BME280;58442;52.716;23.560;2023-05-28T08:48:31;102064.07;;;20.57;37.86
70521;BME280;58442;52.716;23.560;2023-05-28T08:50:37;102056.63;;;20.65;37.73
70521;BME280;58442;52.716;23.560;2023-05-28T08:52:44;102055.88;;;20.71;37.50
70521;BME280;58442;52.716;23.560;2023-05-28T08:54:47;102053.20;;;20.82;37.35
70521;BME280;58442;52.716;23.560;2023-05-28T08:56:48;102049.32;;;20.94;37.09
70521;BME280;58442;52.716;23.560;2023-05-28T08:58:51;102052.92;;;21.05;36.81
70521;BME280;58442;52.716;23.560;2023-05-28T09:00:52;102041.92;;;21.16;36.66
70521;BME280;58442;52.716;23.560;2023-05-28T09:02:55;102044.73;;;21.23;36.45
70521;BME280;58442;52.716;23.560;2023-05-28T09:04:56;102039.65;;;21.32;36.31
70521;BME280;58442;52.716;23.560;2023-05-28T09:06:59;102036.12;;;21.39;36.17
70521;BME280;58442;52.716;23.560;2023-05-28T09:09:07;102036.14;;;21.46;36.01
70521;BME280;58442;52.716;23.560;2023-05-28T09:11:14;102030.23;;;21.54;35.81
70521;BME280;58442;52.716;23.560;2023-05-28T09:13:20;102034.20;;;21.61;35.42
70521;BME280;58442;52.716;23.560;2023-05-28T09:15:22;102035.41;;;21.67;35.38
70521;BME280;58442;52.716;23.560;2023-05-28T09:17:33;102035.41;;;21.74;35.30
70521;BME280;58442;52.716;23.560;2023-05-28T09:19:52;102036.99;;;21.75;35.26
70521;BME280;58442;52.716;23.560;2023-05-28T09:22:04;102026.72;;;21.75;35.30
70521;BME280;58442;52.716;23.560;2023-05-28T09:24:09;102021.59;;;21.81;35.07
70521;BME280;58442;52.716;23.560;2023-05-28T09:26:10;102028.34;;;21.91;34.81
70521;BME280;58442;52.716;23.560;2023-05-28T09:28:13;102020.04;;;21.98;34.85
70521;BME280;58442;52.716;23.560;2023-05-28T09:30:19;102016.86;;;22.03;34.86
70521;BME280;58442;52.716;23.560;2023-05-28T09:32:21;102021.63;;;22.06;34.95
70521;BME280;58442;52.716;23.560;2023-05-28T09:34:30;102021.66;;;22.13;34.95
70521;BME280;58442;52.716;23.560;2023-05-28T09:36:35;102018.09;;;22.20;34.71
70521;BME280;58442;52.716;23.560;2023-05-28T09:38:39;102019.27;;;22.29;34.72
70521;BME280;58442;52.716;23.560;2023-05-28T09:40:42;102017.28;;;22.37;34.54
70521;BME280;58442;52.716;23.560;2023-05-28T09:42:44;102016.09;;;22.49;34.29
70521;BME280;58442;52.716;23.560;2023-05-28T09:44:45;102017.66;;;22.57;34.18
70521;BME280;58442;52.716;23.560;2023-05-28T09:46:48;102020.44;;;22.60;34.14
70521;BME280;58442;52.716;23.560;2023-05-28T09:48:50;102015.27;;;22.66;34.03
70521;BME280;58442;52.716;23.560;2023-05-28T09:50:52;102004.55;;;22.75;33.80
70521;BME280;58442;52.716;23.560;2023-05-28T09:52:56;102006.92;;;22.80;33.65
70521;BME280;58442;52.716;23.560;2023-05-28T09:55:04;102011.27;;;22.81;33.58
70521;BME280;58442;52.716;23.560;2023-05-28T09:57:10;102009.70;;;22.87;33.42
70521;BME280;58442;52.716;23.560;2023-05-28T09:59:13;102008.86;;;22.98;33.23
70521;BME280;58442;52.716;23.560;2023-05-28T10:01:19;102005.27;;;23.04;33.11
70521;BME280;58442;52.716;23.560;2023-05-28T10:03:34;101997.74;;;23.05;33.16
70521;BME280;58442;52.716;23.560;2023-05-28T10:05:47;101994.18;;;23.04;33.08
70521;BME280;58442;52.716;23.560;2023-05-28T10:08:01;101983.88;;;23.08;32.93
70521;BME280;58442;52.716;23.560;2023-05-28T10:10:03;101992.95;;;23.16;32.66
70521;BME280;58442;52.716;23.560;2023-05-28T10:12:14;101984.97;;;23.25;32.49
70521;BME280;58442;52.716;23.560;2023-05-28T10:14:19;101982.19;;;23.29;32.46
70521;BME280;58442;52.716;23.560;2023-05-28T10:16:21;101978.63;;;23.28;32.45
70521;BME280;58442;52.716;23.560;2023-05-28T10:18:24;101983.38;;;23.28;32.40
70521;BME280;58442;52.716;23.560;2023-05-28T10:20:26;101974.24;;;23.31;32.33
70521;BME280;58442;52.716;23.560;2023-05-28T10:22:28;101968.29;;;23.32;32.29
70521;BME280;58442;52.716;23.560;2023-05-28T10:24:31;101974.66;;;23.26;32.47
70521;BME280;58442;52.716;23.560;2023-05-28T10:26:33;101977.47;;;23.18;32.79
70521;BME280;58442;52.716;23.560;2023-05-28T10:28:35;101975.48;;;23.19;32.64
70521;BME280;58442;52.716;23.560;2023-05-28T10:30:38;101980.62;;;23.28;32.55
70521;BME280;58442;52.716;23.560;2023-05-28T10:32:45;101969.07;;;23.36;32.38
70521;BME280;58442;52.716;23.560;2023-05-28T10:34:46;101967.45;;;23.42;32.11
70521;BME280;58442;52.716;23.560;2023-05-28T10:36:54;101972.17;;;23.45;32.30
70521;BME280;58442;52.716;23.560;2023-05-28T10:38:59;101964.62;;;23.50;32.27
70521;BME280;58442;52.716;23.560;2023-05-28T10:41:02;101967.73;;;23.59;32.24
70521;BME280;58442;52.716;23.560;2023-05-28T10:43:04;101963.73;;;23.67;31.94
70521;BME280;58442;52.716;23.560;2023-05-28T10:45:07;101965.65;;;23.77;31.62